sensor_id;sensor_type;location;lat;lon;timestamp;pressure;altitude;pressure_sealevel;temperature;humidity
55490;BME280;44029;52.956;4.772;2023-05-19T00:01:57;103004.78;;;12.61;100.00
55490;BME280;44029;52.956;4.772;2023-05-19T00:04:25;102989.34;;;12.60;100.00
55490;BME280;44029;52.956;4.772;2023-05-19T00:06:52;102989.75;;;12.63;100.00
55490;BME280;44029;52.956;4.772;2023-05-19T00:09:18;102991.84;;;12.54;100.00
55490;BME280;44029;52.956;4.772;2023-05-19T00:11:44;102988.72;;;12.64;100.00
55490;BME280;44029;52.956;4.772;2023-05-19T00:14:10;102988.91;;;12.63;100.00
55490;BME280;44029;52.956;4.772;2023-05-19T00:16:36;102989.53;;;12.71;100.00
55490;BME280;44029;52.956;4.772;2023-05-19T00:19:06;102994.84;;;12.66;100.00
55490;BME280;44029;52.956;4.772;2023-05-19T00:21:34;102998.63;;;12.79;100.00
55490;BME280;44029;52.956;4.772;2023-05-19T00:24:01;102990.59;;;12.64;100.00
55490;BME280;44029;52.956;4.772;2023-05-19T00:26:27;102990.16;;;12.47;100.00
55490;BME280;44029;52.956;4.772;2023-05-19T00:28:52;102990.38;;;12.79;100.00
55490;BME280;44029;52.956;4.772;2023-05-19T00:31:18;102981.94;;;12.40;100.00
55490;BME280;44029;52.956;4.772;2023-05-19T00:33:43;102992.50;;;12.43;100.00
55490;BME280;44029;52.956;4.772;2023-05-19T00:36:09;102986.38;;;12.48;100.00
55490;BME280;44029;52.956;4.772;2023-05-19T00:38:35;102984.66;;;12.80;100.00
55490;BME280;44029;52.956;4.772;2023-05-19T00:41:02;102983.41;;;12.69;100.00
55490;BME280;44029;52.956;4.772;2023-05-19T00:43:28;102990.81;;;12.42;100.00
55490;BME280;44029;52.956;4.772;2023-05-19T00:45:55;102988.72;;;12.64;100.00
55490;BME280;44029;52.956;4.772;2023-05-19T00:48:20;102983.00;;;12.59;100.00
55490;BME280;44029;52.956;4.772;2023-05-19T00:50:47;102984.47;;;12.62;100.00
55490;BME280;44029;52.956;4.772;2023-05-19T00:53:13;102988.69;;;12.91;100.00
55490;BME280;44029;52.956;4.772;2023-05-19T00:55:41;102988.91;;;12.76;100.00
55490;BME280;44029;52.956;4.772;2023-05-19T00:58:08;102992.72;;;12.88;100.00
55490;BME280;44029;52.956;4.772;2023-05-19T01:00:34;102982.34;;;12.64;100.00
55490;BME280;44029;52.956;4.772;2023-05-19T01:03:01;102976.22;;;12.55;100.00
55490;BME280;44029;52.956;4.772;2023-05-19T01:05:27;102983.84;;;12.60;100.00
55490;BME280;44029;52.956;4.772;2023-05-19T01:07:52;102980.66;;;12.63;100.00
55490;BME280;44029;52.956;4.772;2023-05-19T01:10:20;102982.34;;;12.37;100.00
55490;BME280;44029;52.956;4.772;2023-05-19T01:12:46;102982.75;;;12.47;100.00
55490;BME280;44029;52.956;4.772;2023-05-19T01:15:12;102979.63;;;12.57;100.00
55490;BME280;44029;52.956;4.772;2023-05-19T01:20:20;103003.06;;;12.53;100.00
55490;BME280;44029;52.956;4.772;2023-05-19T01:28:52;102986.34;;;12.41;100.00
55490;BME280;44029;52.956;4.772;2023-05-19T01:31:22;102986.34;;;12.28;100.00
55490;BME280;44029;52.956;4.772;2023-05-19T01:33:51;102983.81;;;12.33;100.00
55490;BME280;44029;52.956;4.772;2023-05-19T01:36:18;102989.09;;;12.41;100.00
55490;BME280;44029;52.956;4.772;2023-05-19T01:38:45;102976.19;;;12.42;100.00
55490;BME280;44029;52.956;4.772;2023-05-19T01:41:12;102978.34;;;12.33;100.00
55490;BME280;44029;52.956;4.772;2023-05-19T01:43:39;102979.16;;;12.33;100.00
55490;BME280;44029;52.956;4.772;2023-05-19T01:46:05;102964.56;;;12.40;100.00
55490;BME280;44029;52.956;4.772;2023-05-19T01:48:31;102967.34;;;12.33;100.00
55490;BME280;44029;52.956;4.772;2023-05-19T01:50:58;102966.88;;;12.23;100.00
55490;BME280;44029;52.956;4.772;2023-05-19T01:53:24;102975.78;;;12.31;100.00
55490;BME280;44029;52.956;4.772;2023-05-19T01:55:51;102965.63;;;12.45;100.00
55490;BME280;44029;52.956;4.772;2023-05-19T02:01:29;102969.03;;;12.27;100.00
55490;BME280;44029;52.956;4.772;2023-05-19T02:04:12;102964.34;;;12.14;100.00
55490;BME280;44029;52.956;4.772;2023-05-19T02:06:54;102969.44;;;12.31;100.00
55490;BME280;44029;52.956;4.772;2023-05-19T02:09:46;102974.09;;;12.37;100.00
55490;BME280;44029;52.956;4.772;2023-05-19T02:12:30;102965.22;;;12.48;100.00
55490;BME280;44029;52.956;4.772;2023-05-19T02:15:32;102974.09;;;12.37;100.00
55490;BME280;44029;52.956;4.772;2023-05-19T02:17:59;102966.88;;;12.09;100.00
55490;BME280;44029;52.956;4.772;2023-05-19T02:20:28;102964.97;;;12.16;100.00
55490;BME280;44029;52.956;4.772;2023-05-19T02:22:53;102958.41;;;12.17;100.00
55490;BME280;44029;52.956;4.772;2023-05-19T02:25:18;102953.78;;;12.18;100.00
55490;BME280;44029;52.956;4.772;2023-05-19T02:27:44;102957.59;;;12.24;100.00
55490;BME280;44029;52.956;4.772;2023-05-19T02:30:09;102948.50;;;12.30;100.00
55490;BME280;44029;52.956;4.772;2023-05-19T02:32:35;102958.22;;;12.19;100.00
55490;BME280;44029;52.956;4.772;2023-05-19T02:35:01;102953.38;;;12.28;100.00
55490;BME280;44029;52.956;4.772;2023-05-19T02:37:27;102962.25;;;12.16;100.00
55490;BME280;44029;52.956;4.772;2023-05-19T02:39:55;102955.06;;;12.22;100.00
55490;BME280;44029;52.956;4.772;2023-05-19T02:42:20;102959.25;;;12.11;100.00
55490;BME280;44029;52.956;4.772;2023-05-19T02:44:46;102955.69;;;12.24;100.00
55490;BME280;44029;52.956;4.772;2023-05-19T02:47:14;102945.53;;;12.38;100.00
55490;BME280;44029;52.956;4.772;2023-05-19T02:49:40;102952.06;;;12.10;100.00
55490;BME280;44029;52.956;4.772;2023-05-19T02:52:07;102953.78;;;12.18;100.00
55490;BME280;44029;52.956;4.772;2023-05-19T02:54:33;102954.41;;;12.20;100.00
55490;BME280;44029;52.956;4.772;2023-05-19T02:56:59;102949.78;;;12.34;100.00
55490;BME280;44029;52.956;4.772;2023-05-19T02:59:25;102952.97;;;12.31;100.00
55490;BME280;44029;52.956;4.772;2023-05-19T03:01:54;102939.66;;;12.34;100.00
55490;BME280;44029;52.956;4.772;2023-05-19T03:04:20;102948.69;;;12.15;100.00
55490;BME280;44029;52.956;4.772;2023-05-19T03:06:45;102940.25;;;12.23;100.00
55490;BME280;44029;52.956;4.772;2023-05-19T03:09:14;102932.66;;;12.25;100.00
55490;BME280;44029;52.956;4.772;2023-05-19T03:11:39;102930.31;;;12.35;100.00
55490;BME280;44029;52.956;4.772;2023-05-19T03:14:04;102937.50;;;12.43;100.00
55490;BME280;44029;52.956;4.772;2023-05-19T03:16:30;102946.41;;;12.38;100.00
55490;BME280;44029;52.956;4.772;2023-05-19T03:18:55;102934.13;;;12.28;100.00
55490;BME280;44029;52.956;4.772;2023-05-19T03:21:20;102944.28;;;12.27;100.00
55490;BME280;44029;52.956;4.772;2023-05-19T03:23:46;102940.88;;;12.45;100.00
55490;BME280;44029;52.956;4.772;2023-05-19T03:26:11;102944.47;;;12.66;100.00
55490;BME280;44029;52.956;4.772;2023-05-19T03:28:37;102947.69;;;12.49;100.00
55490;BME280;44029;52.956;4.772;2023-05-19T03:31:02;102938.78;;;12.34;100.00
55490;BME280;44029;52.956;4.772;2023-05-19T03:33:27;102950.19;;;12.51;100.00
55490;BME280;44029;52.956;4.772;2023-05-19T03:35:55;102949.16;;;12.65;100.00
55490;BME280;44029;52.956;4.772;2023-05-19T03:38:20;102944.28;;;12.47;100.00
55490;BME280;44029;52.956;4.772;2023-05-19T03:40:46;102938.59;;;12.42;100.00
55490;BME280;44029;52.956;4.772;2023-05-19T03:43:11;102944.91;;;12.69;100.00
55490;BME280;44029;52.956;4.772;2023-05-19T03:45:37;102932.66;;;12.72;100.00
55490;BME280;44029;52.956;4.772;2023-05-19T03:48:02;102945.97;;;12.88;100.00
55490;BME280;44029;52.956;4.772;2023-05-19T03:50:28;102944.06;;;12.69;100.00
55490;BME280;44029;52.956;4.772;2023-05-19T03:52:55;102936.66;;;12.76;100.00
55490;BME280;44029;52.956;4.772;2023-05-19T03:55:20;102938.31;;;13.04;100.00
55490;BME280;44029;52.956;4.772;2023-05-19T03:57:46;102932.34;;;13.13;100.00
55490;BME280;44029;52.956;4.772;2023-05-19T04:00:12;102934.06;;;13.08;100.00
55490;BME280;44029;52.956;4.772;2023-05-19T04:02:37;102929.13;;;13.23;100.00
55490;BME280;44029;52.956;4.772;2023-05-19T04:05:03;102940.13;;;13.82;100.00
55490;BME280;44029;52.956;4.772;2023-05-19T04:07:31;102931.34;;;13.98;100.00
55490;BME280;44029;52.956;4.772;2023-05-19T04:09:56;102920.47;;;14.35;100.00
55490;BME280;44029;52.956;4.772;2023-05-19T04:12:22;102913.94;;;14.55;100.00
55490;BME280;44029;52.956;4.772;2023-05-19T04:14:47;102920.53;;;14.60;100.00
55490;BME280;44029;52.956;4.772;2023-05-19T04:17:12;102907.88;;;14.71;100.00
55490;BME280;44029;52.956;4.772;2023-05-19T04:19:38;102916.84;;;15.59;100.00
55490;BME280;44029;52.956;4.772;2023-05-19T04:22:04;102917.22;;;15.62;100.00
55490;BME280;44029;52.956;4.772;2023-05-19T04:24:29;102902.84;;;15.72;100.00
55490;BME280;44029;52.956;4.772;2023-05-19T04:26:55;102905.00;;;15.40;100.00
55490;BME280;44029;52.956;4.772;2023-05-19T04:29:20;102910.66;;;15.26;100.00
55490;BME280;44029;52.956;4.772;2023-05-19T04:31:48;102918.66;;;15.35;100.00
55490;BME280;44029;52.956;4.772;2023-05-19T04:34:13;102912.19;;;15.41;100.00
55490;BME280;44029;52.956;4.772;2023-05-19T04:36:39;102921.25;;;15.11;100.00
55490;BME280;44029;52.956;4.772;2023-05-19T04:39:04;102922.81;;;15.07;100.00
55490;BME280;44029;52.956;4.772;2023-05-19T04:41:32;102924.19;;;14.73;100.00
55490;BME280;44029;52.956;4.772;2023-05-19T04:43:58;102923.53;;;14.77;100.00
55490;BME280;44029;52.956;4.772;2023-05-19T04:46:25;102926.94;;;15.16;100.00
55490;BME280;44029;52.956;4.772;2023-05-19T04:48:51;102929.53;;;15.11;100.00
55490;BME280;44029;52.956;4.772;2023-05-19T04:51:17;102930.47;;;15.05;100.00
55490;BME280;44029;52.956;4.772;2023-05-19T04:53:43;102917.06;;;15.08;100.00
55490;BME280;44029;52.956;4.772;2023-05-19T04:56:09;102912.88;;;15.55;100.00
55490;BME280;44029;52.956;4.772;2023-05-19T04:58:37;102927.94;;;15.22;100.00
55490;BME280;44029;52.956;4.772;2023-05-19T05:01:03;102922.97;;;15.31;100.00
55490;BME280;44029;52.956;4.772;2023-05-19T05:03:28;102931.22;;;14.94;100.00
55490;BME280;44029;52.956;4.772;2023-05-19T05:05:54;102938.59;;;15.00;100.00
55490;BME280;44029;52.956;4.772;2023-05-19T05:08:21;102937.66;;;15.06;100.00
55490;BME280;44029;52.956;4.772;2023-05-19T05:10:50;102931.97;;;15.19;100.00
55490;BME280;44029;52.956;4.772;2023-05-19T05:13:19;102930.91;;;15.39;100.00
55490;BME280;44029;52.956;4.772;2023-05-19T05:15:45;102936.13;;;15.47;100.00
55490;BME280;44029;52.956;4.772;2023-05-19T05:18:11;102946.31;;;15.65;100.00
55490;BME280;44029;52.956;4.772;2023-05-19T05:20:37;102940.09;;;15.88;100.00
55490;BME280;44029;52.956;4.772;2023-05-19T05:23:03;102946.47;;;16.42;100.00
55490;BME280;44029;52.956;4.772;2023-05-19T05:25:28;102936.72;;;16.63;100.00
55490;BME280;44029;52.956;4.772;2023-05-19T05:27:54;102934.13;;;16.03;100.00
55490;BME280;44029;52.956;4.772;2023-05-19T05:30:19;102930.25;;;16.04;100.00
55490;BME280;44029;52.956;4.772;2023-05-19T05:32:45;102928.88;;;16.25;100.00
55490;BME280;44029;52.956;4.772;2023-05-19T05:35:10;102924.03;;;16.86;100.00
55490;BME280;44029;52.956;4.772;2023-05-19T05:37:36;102925.78;;;17.04;100.00
55490;BME280;44029;52.956;4.772;2023-05-19T05:40:02;102923.56;;;17.70;100.00
55490;BME280;44029;52.956;4.772;2023-05-19T05:42:28;102923.66;;;18.04;100.00
55490;BME280;44029;52.956;4.772;2023-05-19T05:44:53;102922.75;;;17.70;100.00
55490;BME280;44029;52.956;4.772;2023-05-19T05:47:19;102920.50;;;18.63;100.00
55490;BME280;44029;52.956;4.772;2023-05-19T05:49:45;102912.50;;;19.72;100.00
55490;BME280;44029;52.956;4.772;2023-05-19T05:52:13;102915.13;;;19.79;100.00
55490;BME280;44029;52.956;4.772;2023-05-19T05:54:39;102908.91;;;20.63;100.00
55490;BME280;44029;52.956;4.772;2023-05-19T05:57:05;102909.94;;;20.95;100.00
55490;BME280;44029;52.956;4.772;2023-05-19T05:59:30;102898.47;;;20.91;100.00
55490;BME280;44029;52.956;4.772;2023-05-19T06:01:57;102905.69;;;20.12;100.00
55490;BME280;44029;52.956;4.772;2023-05-19T06:04:23;102901.63;;;19.43;100.00
55490;BME280;44029;52.956;4.772;2023-05-19T06:06:49;102908.69;;;20.38;100.00
55490;BME280;44029;52.956;4.772;2023-05-19T06:09:16;102895.44;;;20.18;100.00
55490;BME280;44029;52.956;4.772;2023-05-19T06:11:42;102898.63;;;20.69;100.00
55490;BME280;44029;52.956;4.772;2023-05-19T06:14:07;102908.44;;;20.07;100.00
55490;BME280;44029;52.956;4.772;2023-05-19T06:16:32;102907.09;;;20.47;100.00
55490;BME280;44029;52.956;4.772;2023-05-19T06:18:58;102905.50;;;21.04;100.00
55490;BME280;44029;52.956;4.772;2023-05-19T06:21:23;102906.03;;;21.54;100.00
55490;BME280;44029;52.956;4.772;2023-05-19T06:23:48;102904.81;;;21.39;100.00
55490;BME280;44029;52.956;4.772;2023-05-19T06:26:14;102903.78;;;20.93;100.00
55490;BME280;44029;52.956;4.772;2023-05-19T06:28:39;102914.97;;;20.23;100.00
55490;BME280;44029;52.956;4.772;2023-05-19T06:31:05;102926.50;;;19.11;100.00
55490;BME280;44029;52.956;4.772;2023-05-19T06:33:30;102924.03;;;18.59;100.00
55490;BME280;44029;52.956;4.772;2023-05-19T06:35:55;102933.22;;;18.25;100.00
55490;BME280;44029;52.956;4.772;2023-05-19T06:38:21;102928.06;;;18.17;100.00
55490;BME280;44029;52.956;4.772;2023-05-19T06:40:47;102918.34;;;17.57;100.00
55490;BME280;44029;52.956;4.772;2023-05-19T06:43:12;102928.94;;;18.34;100.00
55490;BME280;44029;52.956;4.772;2023-05-19T06:45:37;102912.66;;;18.94;100.00
55490;BME280;44029;52.956;4.772;2023-05-19T06:48:03;102917.09;;;18.95;100.00
55490;BME280;44029;52.956;4.772;2023-05-19T06:50:28;102921.34;;;19.20;100.00
55490;BME280;44029;52.956;4.772;2023-05-19T06:52:53;102920.63;;;19.07;100.00
55490;BME280;44029;52.956;4.772;2023-05-19T06:55:19;102926.31;;;18.79;100.00
55490;BME280;44029;52.956;4.772;2023-05-19T06:57:44;102930.94;;;18.22;100.00
55490;BME280;44029;52.956;4.772;2023-05-19T07:00:10;102919.31;;;19.59;100.00
55490;BME280;44029;52.956;4.772;2023-05-19T07:02:37;102916.97;;;20.00;100.00
55490;BME280;44029;52.956;4.772;2023-05-19T07:05:02;102915.31;;;20.32;100.00
55490;BME280;44029;52.956;4.772;2023-05-19T07:07:28;102913.97;;;19.53;100.00
55490;BME280;44029;52.956;4.772;2023-05-19T07:09:53;102923.06;;;19.26;100.00
55490;BME280;44029;52.956;4.772;2023-05-19T07:12:18;102916.47;;;19.76;100.00
55490;BME280;44029;52.956;4.772;2023-05-19T07:14:44;102915.25;;;20.21;100.00
55490;BME280;44029;52.956;4.772;2023-05-19T07:17:09;102919.53;;;19.30;100.00
55490;BME280;44029;52.956;4.772;2023-05-19T07:19:34;102923.88;;;19.70;100.00
55490;BME280;44029;52.956;4.772;2023-05-19T07:22:00;102920.84;;;19.72;100.00
55490;BME280;44029;52.956;4.772;2023-05-19T07:24:25;102922.53;;;18.51;100.00
55490;BME280;44029;52.956;4.772;2023-05-19T07:26:51;102920.56;;;19.24;100.00
55490;BME280;44029;52.956;4.772;2023-05-19T07:29:17;102923.31;;;19.24;100.00
55490;BME280;44029;52.956;4.772;2023-05-19T07:31:42;102923.19;;;18.92;100.00
55490;BME280;44029;52.956;4.772;2023-05-19T07:34:08;102933.94;;;18.04;100.00
55490;BME280;44029;52.956;4.772;2023-05-19T07:36:33;102925.81;;;18.14;100.00
55490;BME280;44029;52.956;4.772;2023-05-19T07:38:59;102927.38;;;17.81;100.00
55490;BME280;44029;52.956;4.772;2023-05-19T07:41:24;102927.38;;;17.81;100.00
55490;BME280;44029;52.956;4.772;2023-05-19T07:43:50;102917.53;;;17.73;100.00
55490;BME280;44029;52.956;4.772;2023-05-19T07:46:15;102919.59;;;17.37;100.00
55490;BME280;44029;52.956;4.772;2023-05-19T07:48:41;102926.63;;;17.98;100.00
55490;BME280;44029;52.956;4.772;2023-05-19T07:51:06;102933.56;;;18.46;100.00
55490;BME280;44029;52.956;4.772;2023-05-19T07:53:35;102919.25;;;19.32;100.00
55490;BME280;44029;52.956;4.772;2023-05-19T07:56:00;102929.03;;;19.79;100.00
55490;BME280;44029;52.956;4.772;2023-05-19T07:58:25;102920.81;;;20.59;100.00
55490;BME280;44029;52.956;4.772;2023-05-19T08:00:51;102914.56;;;20.09;100.00
55490;BME280;44029;52.956;4.772;2023-05-19T08:03:17;102918.66;;;20.01;100.00
55490;BME280;44029;52.956;4.772;2023-05-19T08:05:42;102918.66;;;19.74;100.00
55490;BME280;44029;52.956;4.772;2023-05-19T08:08:08;102918.72;;;19.79;100.00
55490;BME280;44029;52.956;4.772;2023-05-19T08:10:33;102914.28;;;20.38;100.00
55490;BME280;44029;52.956;4.772;2023-05-19T08:12:59;102915.13;;;19.79;100.00
55490;BME280;44029;52.956;4.772;2023-05-19T08:15:24;102910.59;;;19.50;100.00
55490;BME280;44029;52.956;4.772;2023-05-19T08:17:50;102912.03;;;19.53;100.00
55490;BME280;44029;52.956;4.772;2023-05-19T08:20:15;102904.28;;;19.33;100.00
55490;BME280;44029;52.956;4.772;2023-05-19T08:22:41;102908.50;;;19.85;100.00
55490;BME280;44029;52.956;4.772;2023-05-19T08:25:07;102902.59;;;20.41;100.00
55490;BME280;44029;52.956;4.772;2023-05-19T08:27:33;102906.47;;;19.80;100.00
55490;BME280;44029;52.956;4.772;2023-05-19T08:29:58;102908.38;;;20.02;100.00
55490;BME280;44029;52.956;4.772;2023-05-19T08:32:24;102907.41;;;19.64;100.00
55490;BME280;44029;52.956;4.772;2023-05-19T08:34:50;102900.06;;;20.39;100.00
55490;BME280;44029;52.956;4.772;2023-05-19T08:37:15;102906.47;;;19.80;100.00
55490;BME280;44029;52.956;4.772;2023-05-19T08:39:41;102909.50;;;19.07;100.00
55490;BME280;44029;52.956;4.772;2023-05-19T08:42:06;102908.31;;;18.81;100.00
55490;BME280;44029;52.956;4.772;2023-05-19T08:44:34;102904.34;;;18.77;100.00
55490;BME280;44029;52.956;4.772;2023-05-19T08:47:02;102914.22;;;19.07;100.00
55490;BME280;44029;52.956;4.772;2023-05-19T08:49:32;102907.38;;;19.37;100.00
55490;BME280;44029;52.956;4.772;2023-05-19T08:52:24;102897.25;;;19.75;100.00
55490;BME280;44029;52.956;4.772;2023-05-19T08:55:03;102893.72;;;19.35;100.00
55490;BME280;44029;52.956;4.772;2023-05-19T08:57:30;102888.31;;;19.45;100.00
55490;BME280;44029;52.956;4.772;2023-05-19T08:59:57;102897.91;;;19.60;100.00
55490;BME280;44029;52.956;4.772;2023-05-19T09:02:24;102902.63;;;18.76;100.00
55490;BME280;44029;52.956;4.772;2023-05-19T09:04:50;102912.97;;;18.42;100.00
55490;BME280;44029;52.956;4.772;2023-05-19T09:07:17;102905.28;;;18.49;100.00
55490;BME280;44029;52.956;4.772;2023-05-19T09:09:43;102903.09;;;18.85;100.00
55490;BME280;44029;52.956;4.772;2023-05-19T09:12:09;102895.84;;;18.84;100.00
55490;BME280;44029;52.956;4.772;2023-05-19T09:14:36;102892.84;;;19.29;100.00
55490;BME280;44029;52.956;4.772;2023-05-19T09:17:02;102909.25;;;19.09;100.00
55490;BME280;44029;52.956;4.772;2023-05-19T09:19:28;102896.50;;;17.89;100.00
55490;BME280;44029;52.956;4.772;2023-05-19T09:21:58;102903.84;;;17.84;100.00
55490;BME280;44029;52.956;4.772;2023-05-19T09:24:32;102902.44;;;17.81;100.00
55490;BME280;44029;52.956;4.772;2023-05-19T09:26:58;102902.94;;;17.49;100.00
55490;BME280;44029;52.956;4.772;2023-05-19T09:29:24;102903.53;;;17.51;100.00
55490;BME280;44029;52.956;4.772;2023-05-19T09:31:51;102907.19;;;17.28;100.00
55490;BME280;44029;52.956;4.772;2023-05-19T09:34:18;102899.09;;;16.98;100.00
55490;BME280;44029;52.956;4.772;2023-05-19T09:36:45;102902.13;;;17.37;100.00
55490;BME280;44029;52.956;4.772;2023-05-19T09:39:18;102908.31;;;17.27;100.00
55490;BME280;44029;52.956;4.772;2023-05-19T09:41:43;102899.41;;;17.13;100.00
55490;BME280;44029;52.956;4.772;2023-05-19T09:44:29;102900.78;;;16.75;100.00
55490;BME280;44029;52.956;4.772;2023-05-19T09:46:56;102891.38;;;17.00;100.00
55490;BME280;44029;52.956;4.772;2023-05-19T09:49:26;102888.69;;;17.29;100.00
55490;BME280;44029;52.956;4.772;2023-05-19T09:51:58;102894.31;;;17.63;100.00
55490;BME280;44029;52.956;4.772;2023-05-19T09:54:24;102893.09;;;18.16;100.00
55490;BME280;44029;52.956;4.772;2023-05-19T09:57:02;102889.97;;;17.67;100.00
55490;BME280;44029;52.956;4.772;2023-05-19T09:59:28;102889.03;;;17.61;100.00
55490;BME280;44029;52.956;4.772;2023-05-19T10:01:58;102896.34;;;17.96;100.00
55490;BME280;44029;52.956;4.772;2023-05-19T10:04:25;102896.88;;;18.10;100.00
55490;BME280;44029;52.956;4.772;2023-05-19T10:06:52;102898.38;;;18.01;100.00
55490;BME280;44029;52.956;4.772;2023-05-19T10:09:21;102906.28;;;17.92;100.00
55490;BME280;44029;52.956;4.772;2023-05-19T10:11:49;102900.03;;;17.85;100.00
55490;BME280;44029;52.956;4.772;2023-05-19T10:14:15;102900.31;;;18.17;100.00
55490;BME280;44029;52.956;4.772;2023-05-19T10:16:43;102897.78;;;18.15;100.00
55490;BME280;44029;52.956;4.772;2023-05-19T10:19:10;102890.88;;;18.69;100.00
55490;BME280;44029;52.956;4.772;2023-05-19T10:21:36;102889.22;;;18.68;100.00
55490;BME280;44029;52.956;4.772;2023-05-19T10:24:02;102886.44;;;18.68;100.00
55490;BME280;44029;52.956;4.772;2023-05-19T10:26:28;102885.19;;;18.25;100.00
55490;BME280;44029;52.956;4.772;2023-05-19T10:28:54;102883.06;;;18.49;100.00
55490;BME280;44029;52.956;4.772;2023-05-19T10:31:22;102882.44;;;17.79;100.00
55490;BME280;44029;52.956;4.772;2023-05-19T10:34:04;102882.00;;;18.16;100.00
55490;BME280;44029;52.956;4.772;2023-05-19T10:37:00;102878.78;;;18.58;100.00
55490;BME280;44029;52.956;4.772;2023-05-19T10:39:33;102884.81;;;17.87;100.00
55490;BME280;44029;52.956;4.772;2023-05-19T10:42:03;102877.63;;;18.20;100.00
55490;BME280;44029;52.956;4.772;2023-05-19T10:45:00;102885.56;;;17.83;100.00
55490;BME280;44029;52.956;4.772;2023-05-19T10:47:28;102887.34;;;17.31;100.00
55490;BME280;44029;52.956;4.772;2023-05-19T10:49:54;102877.34;;;17.88;100.00
55490;BME280;44029;52.956;4.772;2023-05-19T10:52:23;102877.97;;;18.07;100.00
55490;BME280;44029;52.956;4.772;2023-05-19T10:54:54;102877.88;;;17.73;100.00
55490;BME280;44029;52.956;4.772;2023-05-19T10:57:26;102882.25;;;17.98;100.00
55490;BME280;44029;52.956;4.772;2023-05-19T10:59:57;102876.97;;;18.13;100.00
55490;BME280;44029;52.956;4.772;2023-05-19T11:02:37;102871.59;;;18.23;100.00
55490;BME280;44029;52.956;4.772;2023-05-19T11:05:15;102876.38;;;18.28;100.00
55490;BME280;44029;52.956;4.772;2023-05-19T11:08:04;102878.91;;;18.29;100.00
55490;BME280;44029;52.956;4.772;2023-05-19T11:10:30;102862.72;;;18.43;100.00
55490;BME280;44029;52.956;4.772;2023-05-19T11:12:56;102867.22;;;18.10;100.00
55490;BME280;44029;52.956;4.772;2023-05-19T11:15:24;102873.94;;;17.98;100.00
55490;BME280;44029;52.956;4.772;2023-05-19T11:17:51;102863.41;;;18.00;100.00
55490;BME280;44029;52.956;4.772;2023-05-19T11:20:23;102868.53;;;18.25;100.00
55490;BME280;44029;52.956;4.772;2023-05-19T11:23:06;102867.38;;;18.04;100.00
55490;BME280;44029;52.956;4.772;2023-05-19T11:25:46;102870.13;;;18.54;100.00
55490;BME280;44029;52.956;4.772;2023-05-19T11:28:15;102866.84;;;18.41;100.00
55490;BME280;44029;52.956;4.772;2023-05-19T11:30:41;102859.38;;;18.24;100.00
55490;BME280;44029;52.956;4.772;2023-05-19T11:33:10;102860.75;;;17.76;100.00
55490;BME280;44029;52.956;4.772;2023-05-19T11:35:38;102857.13;;;18.21;100.00
55490;BME280;44029;52.956;4.772;2023-05-19T11:38:04;102863.16;;;18.35;100.00
55490;BME280;44029;52.956;4.772;2023-05-19T11:40:31;102860.63;;;18.50;100.00
55490;BME280;44029;52.956;4.772;2023-05-19T11:42:56;102861.81;;;17.87;100.00
55490;BME280;44029;52.956;4.772;2023-05-19T11:45:26;102861.38;;;17.49;100.00
55490;BME280;44029;52.956;4.772;2023-05-19T11:47:54;102865.19;;;18.06;100.00
55490;BME280;44029;52.956;4.772;2023-05-19T11:50:20;102855.59;;;17.96;100.00
55490;BME280;44029;52.956;4.772;2023-05-19T11:52:46;102862.66;;;17.87;100.00
55490;BME280;44029;52.956;4.772;2023-05-19T11:55:19;102861.25;;;18.02;100.00
55490;BME280;44029;52.956;4.772;2023-05-19T11:58:01;102857.38;;;17.74;100.00
55490;BME280;44029;52.956;4.772;2023-05-19T12:00:33;102850.78;;;17.46;100.00
55490;BME280;44029;52.956;4.772;2023-05-19T12:03:01;102857.25;;;17.52;100.00
55490;BME280;44029;52.956;4.772;2023-05-19T12:05:26;102857.84;;;17.83;100.00
55490;BME280;44029;52.956;4.772;2023-05-19T12:07:54;102858.56;;;17.78;100.00
55490;BME280;44029;52.956;4.772;2023-05-19T12:10:27;102846.97;;;17.81;100.00
55490;BME280;44029;52.956;4.772;2023-05-19T12:12:54;102857.66;;;17.44;100.00
55490;BME280;44029;52.956;4.772;2023-05-19T12:15:23;102861.38;;;17.49;100.00
55490;BME280;44029;52.956;4.772;2023-05-19T12:17:59;102865.06;;;17.26;100.00
55490;BME280;44029;52.956;4.772;2023-05-19T12:20:29;102855.63;;;17.68;100.00
55490;BME280;44029;52.956;4.772;2023-05-19T12:22:59;102853.75;;;17.28;100.00
55490;BME280;44029;52.956;4.772;2023-05-19T12:25:25;102847.44;;;17.04;100.00
55490;BME280;44029;52.956;4.772;2023-05-19T12:27:56;102847.31;;;17.68;100.00
55490;BME280;44029;52.956;4.772;2023-05-19T12:30:26;102836.81;;;17.70;100.00
55490;BME280;44029;52.956;4.772;2023-05-19T12:32:53;102838.28;;;17.32;100.00
55490;BME280;44029;52.956;4.772;2023-05-19T12:35:19;102840.00;;;17.33;100.00
55490;BME280;44029;52.956;4.772;2023-05-19T12:37:45;102837.59;;;17.25;100.00
55490;BME280;44029;52.956;4.772;2023-05-19T12:40:15;102832.25;;;17.64;100.00
55490;BME280;44029;52.956;4.772;2023-05-19T12:42:43;102838.25;;;17.15;100.00
55490;BME280;44029;52.956;4.772;2023-05-19T12:45:09;102843.50;;;17.28;100.00
55490;BME280;44029;52.956;4.772;2023-05-19T12:47:35;102835.34;;;17.22;100.00
55490;BME280;44029;52.956;4.772;2023-05-19T12:50:04;102832.28;;;16.94;100.00
55490;BME280;44029;52.956;4.772;2023-05-19T12:52:32;102830.84;;;16.92;100.00
55490;BME280;44029;52.956;4.772;2023-05-19T12:55:01;102832.38;;;17.40;100.00